sensor_id;sensor_type;location;lat;lon;timestamp;P1;durP1;ratioP1;P2;durP2;ratioP2
35074;SDS011;21260;34.984;32.490;2022-08-03T00:01:03;5.43;;;3.90;;
35074;SDS011;21260;34.984;32.490;2022-08-03T00:03:29;6.63;;;4.10;;
35074;SDS011;21260;34.984;32.490;2022-08-03T00:05:56;4.43;;;3.97;;
35074;SDS011;21260;34.984;32.490;2022-08-03T00:08:22;9.18;;;4.40;;
35074;SDS011;21260;34.984;32.490;2022-08-03T00:10:49;4.75;;;3.70;;
35074;SDS011;21260;34.984;32.490;2022-08-03T00:13:15;4.82;;;4.05;;
35074;SDS011;21260;34.984;32.490;2022-08-03T00:15:43;5.73;;;3.83;;
35074;SDS011;21260;34.984;32.490;2022-08-03T00:18:09;4.95;;;4.20;;
35074;SDS011;21260;34.984;32.490;2022-08-03T00:20:36;7.30;;;4.30;;
35074;SDS011;21260;34.984;32.490;2022-08-03T00:23:03;6.50;;;4.03;;
35074;SDS011;21260;34.984;32.490;2022-08-03T00:25:31;5.20;;;4.30;;
35074;SDS011;21260;34.984;32.490;2022-08-03T00:27:59;7.82;;;4.30;;
35074;SDS011;21260;34.984;32.490;2022-08-03T00:30:27;4.93;;;3.97;;
35074;SDS011;21260;34.984;32.490;2022-08-03T00:32:53;6.53;;;4.18;;
35074;SDS011;21260;34.984;32.490;2022-08-03T00:35:20;5.07;;;4.10;;
35074;SDS011;21260;34.984;32.490;2022-08-03T00:37:47;6.63;;;4.35;;
35074;SDS011;21260;34.984;32.490;2022-08-03T00:40:13;6.93;;;4.47;;
35074;SDS011;21260;34.984;32.490;2022-08-03T00:42:51;5.63;;;4.30;;
35074;SDS011;21260;34.984;32.490;2022-08-03T00:45:23;5.40;;;4.47;;
35074;SDS011;21260;34.984;32.490;2022-08-03T00:48:16;5.13;;;4.13;;
35074;SDS011;21260;34.984;32.490;2022-08-03T00:50:42;5.53;;;4.75;;
35074;SDS011;21260;34.984;32.490;2022-08-03T00:53:09;5.27;;;4.33;;
35074;SDS011;21260;34.984;32.490;2022-08-03T00:55:37;6.47;;;4.67;;
35074;SDS011;21260;34.984;32.490;2022-08-03T00:58:05;5.65;;;4.22;;
35074;SDS011;21260;34.984;32.490;2022-08-03T01:00:33;5.40;;;4.37;;
35074;SDS011;21260;34.984;32.490;2022-08-03T01:03:03;4.57;;;3.93;;
35074;SDS011;21260;34.984;32.490;2022-08-03T01:05:33;4.55;;;4.13;;
35074;SDS011;21260;34.984;32.490;2022-08-03T01:16:56;5.70;;;3.73;;
35074;SDS011;21260;34.984;32.490;2022-08-03T01:19:56;4.77;;;4.27;;
35074;SDS011;21260;34.984;32.490;2022-08-03T01:32:16;6.45;;;4.35;;
35074;SDS011;21260;34.984;32.490;2022-08-03T01:35:03;9.45;;;3.85;;
35074;SDS011;21260;34.984;32.490;2022-08-03T01:37:44;5.10;;;4.00;;
35074;SDS011;21260;34.984;32.490;2022-08-03T01:40:19;5.87;;;4.30;;
35074;SDS011;21260;34.984;32.490;2022-08-03T01:42:49;6.97;;;3.90;;
35074;SDS011;21260;34.984;32.490;2022-08-03T01:45:18;4.27;;;3.87;;
35074;SDS011;21260;34.984;32.490;2022-08-03T01:47:47;4.50;;;4.10;;
35074;SDS011;21260;34.984;32.490;2022-08-03T01:50:18;4.90;;;4.05;;
35074;SDS011;21260;34.984;32.490;2022-08-03T01:52:52;4.03;;;3.60;;
35074;SDS011;21260;34.984;32.490;2022-08-03T01:55:21;5.07;;;3.95;;
35074;SDS011;21260;34.984;32.490;2022-08-03T01:57:52;4.83;;;4.00;;
35074;SDS011;21260;34.984;32.490;2022-08-03T02:00:21;5.82;;;3.75;;
35074;SDS011;21260;34.984;32.490;2022-08-03T02:02:49;6.17;;;3.90;;
35074;SDS011;21260;34.984;32.490;2022-08-03T02:05:20;6.55;;;4.68;;
35074;SDS011;21260;34.984;32.490;2022-08-03T02:07:47;5.97;;;4.30;;
35074;SDS011;21260;34.984;32.490;2022-08-03T02:10:17;6.63;;;3.80;;
35074;SDS011;21260;34.984;32.490;2022-08-03T02:12:46;5.63;;;4.27;;
35074;SDS011;21260;34.984;32.490;2022-08-03T02:15:15;6.93;;;4.30;;
35074;SDS011;21260;34.984;32.490;2022-08-03T02:17:43;5.43;;;4.10;;
35074;SDS011;21260;34.984;32.490;2022-08-03T02:20:13;7.22;;;4.28;;
35074;SDS011;21260;34.984;32.490;2022-08-03T02:22:41;6.88;;;4.07;;
35074;SDS011;21260;34.984;32.490;2022-08-03T02:25:11;5.82;;;4.00;;
35074;SDS011;21260;34.984;32.490;2022-08-03T02:27:42;5.50;;;4.10;;
35074;SDS011;21260;34.984;32.490;2022-08-03T02:30:17;5.13;;;3.97;;
35074;SDS011;21260;34.984;32.490;2022-08-03T02:32:50;6.25;;;4.18;;
35074;SDS011;21260;34.984;32.490;2022-08-03T02:35:21;5.93;;;4.30;;
35074;SDS011;21260;34.984;32.490;2022-08-03T02:37:55;6.43;;;4.20;;
35074;SDS011;21260;34.984;32.490;2022-08-03T02:40:27;4.95;;;4.15;;
35074;SDS011;21260;34.984;32.490;2022-08-03T02:42:59;8.07;;;4.20;;
35074;SDS011;21260;34.984;32.490;2022-08-03T02:45:34;5.03;;;3.85;;
35074;SDS011;21260;34.984;32.490;2022-08-03T02:48:07;4.57;;;3.67;;
35074;SDS011;21260;34.984;32.490;2022-08-03T02:50:36;5.10;;;4.20;;
35074;SDS011;21260;34.984;32.490;2022-08-03T02:53:04;6.97;;;4.15;;
35074;SDS011;21260;34.984;32.490;2022-08-03T02:55:32;6.18;;;3.90;;
35074;SDS011;21260;34.984;32.490;2022-08-03T02:58:00;5.05;;;3.60;;
35074;SDS011;21260;34.984;32.490;2022-08-03T03:00:30;6.65;;;3.67;;
35074;SDS011;21260;34.984;32.490;2022-08-03T03:02:57;4.38;;;3.50;;
35074;SDS011;21260;34.984;32.490;2022-08-03T03:05:27;5.88;;;3.78;;
35074;SDS011;21260;34.984;32.490;2022-08-03T03:07:55;4.60;;;3.55;;
35074;SDS011;21260;34.984;32.490;2022-08-03T03:10:22;6.07;;;3.50;;
35074;SDS011;21260;34.984;32.490;2022-08-03T03:12:51;5.93;;;3.70;;
35074;SDS011;21260;34.984;32.490;2022-08-03T03:15:26;4.43;;;3.47;;
35074;SDS011;21260;34.984;32.490;2022-08-03T03:17:55;4.72;;;3.95;;
35074;SDS011;21260;34.984;32.490;2022-08-03T03:20:25;5.13;;;3.90;;
35074;SDS011;21260;34.984;32.490;2022-08-03T03:22:53;7.97;;;4.13;;
35074;SDS011;21260;34.984;32.490;2022-08-03T03:25:20;5.07;;;3.80;;
35074;SDS011;21260;34.984;32.490;2022-08-03T03:27:47;9.02;;;3.92;;
35074;SDS011;21260;34.984;32.490;2022-08-03T03:30:15;5.23;;;4.07;;
35074;SDS011;21260;34.984;32.490;2022-08-03T03:32:41;7.18;;;4.05;;
35074;SDS011;21260;34.984;32.490;2022-08-03T03:35:08;11.00;;;4.10;;
35074;SDS011;21260;34.984;32.490;2022-08-03T03:37:39;8.93;;;4.50;;
35074;SDS011;21260;34.984;32.490;2022-08-03T03:40:05;7.28;;;4.03;;
35074;SDS011;21260;34.984;32.490;2022-08-03T03:42:33;8.85;;;4.40;;
35074;SDS011;21260;34.984;32.490;2022-08-03T03:45:03;9.68;;;4.18;;
35074;SDS011;21260;34.984;32.490;2022-08-03T03:47:33;5.90;;;3.95;;
35074;SDS011;21260;34.984;32.490;2022-08-03T03:50:01;6.40;;;4.20;;
35074;SDS011;21260;34.984;32.490;2022-08-03T03:52:30;6.07;;;4.40;;
35074;SDS011;21260;34.984;32.490;2022-08-03T03:54:58;4.85;;;4.28;;
35074;SDS011;21260;34.984;32.490;2022-08-03T03:57:26;5.90;;;3.90;;
35074;SDS011;21260;34.984;32.490;2022-08-03T03:59:53;6.13;;;3.90;;
35074;SDS011;21260;34.984;32.490;2022-08-03T04:02:19;4.15;;;3.75;;
35074;SDS011;21260;34.984;32.490;2022-08-03T04:04:46;9.75;;;3.83;;
35074;SDS011;21260;34.984;32.490;2022-08-03T04:07:32;7.60;;;4.28;;
35074;SDS011;21260;34.984;32.490;2022-08-03T04:10:33;5.35;;;3.92;;
35074;SDS011;21260;34.984;32.490;2022-08-03T04:13:22;5.82;;;4.35;;
35074;SDS011;21260;34.984;32.490;2022-08-03T04:16:13;14.85;;;4.43;;
35074;SDS011;21260;34.984;32.490;2022-08-03T04:18:48;5.97;;;3.85;;
35074;SDS011;21260;34.984;32.490;2022-08-03T04:21:25;4.75;;;4.18;;
35074;SDS011;21260;34.984;32.490;2022-08-03T04:23:57;5.78;;;4.38;;
35074;SDS011;21260;34.984;32.490;2022-08-03T04:26:31;6.07;;;4.00;;
35074;SDS011;21260;34.984;32.490;2022-08-03T04:29:03;6.22;;;4.05;;
35074;SDS011;21260;34.984;32.490;2022-08-03T04:31:32;5.53;;;3.75;;
35074;SDS011;21260;34.984;32.490;2022-08-03T04:34:00;7.72;;;4.22;;
35074;SDS011;21260;34.984;32.490;2022-08-03T04:36:29;5.43;;;4.22;;
35074;SDS011;21260;34.984;32.490;2022-08-03T04:39:07;6.03;;;4.05;;
35074;SDS011;21260;34.984;32.490;2022-08-03T04:41:40;11.93;;;3.80;;
35074;SDS011;21260;34.984;32.490;2022-08-03T04:44:10;5.03;;;4.03;;
35074;SDS011;21260;34.984;32.490;2022-08-03T04:46:39;4.72;;;4.05;;
35074;SDS011;21260;34.984;32.490;2022-08-03T04:49:08;7.13;;;4.07;;
35074;SDS011;21260;34.984;32.490;2022-08-03T04:51:36;5.60;;;3.95;;
35074;SDS011;21260;34.984;32.490;2022-08-03T04:54:04;7.25;;;4.22;;
35074;SDS011;21260;34.984;32.490;2022-08-03T04:56:31;7.53;;;4.10;;
35074;SDS011;21260;34.984;32.490;2022-08-03T04:58:59;10.13;;;4.30;;
35074;SDS011;21260;34.984;32.490;2022-08-03T05:01:25;5.78;;;4.38;;
35074;SDS011;21260;34.984;32.490;2022-08-03T05:03:51;5.47;;;3.80;;
35074;SDS011;21260;34.984;32.490;2022-08-03T05:06:17;6.13;;;4.30;;
35074;SDS011;21260;34.984;32.490;2022-08-03T05:08:44;4.40;;;4.00;;
35074;SDS011;21260;34.984;32.490;2022-08-03T05:11:10;9.90;;;4.57;;
35074;SDS011;21260;34.984;32.490;2022-08-03T05:13:36;5.60;;;4.20;;
35074;SDS011;21260;34.984;32.490;2022-08-03T05:16:02;5.97;;;4.25;;
35074;SDS011;21260;34.984;32.490;2022-08-03T05:18:29;6.57;;;4.40;;
35074;SDS011;21260;34.984;32.490;2022-08-03T05:20:56;5.93;;;3.92;;
35074;SDS011;21260;34.984;32.490;2022-08-03T05:23:23;7.55;;;4.65;;
35074;SDS011;21260;34.984;32.490;2022-08-03T05:25:49;8.70;;;4.45;;
35074;SDS011;21260;34.984;32.490;2022-08-03T05:28:15;7.70;;;4.65;;
35074;SDS011;21260;34.984;32.490;2022-08-03T05:30:42;8.82;;;4.30;;
35074;SDS011;21260;34.984;32.490;2022-08-03T05:33:11;5.22;;;3.70;;
35074;SDS011;21260;34.984;32.490;2022-08-03T05:35:38;5.93;;;4.30;;
35074;SDS011;21260;34.984;32.490;2022-08-03T05:38:05;6.72;;;3.92;;
35074;SDS011;21260;34.984;32.490;2022-08-03T05:40:33;5.10;;;3.95;;
35074;SDS011;21260;34.984;32.490;2022-08-03T05:42:59;5.47;;;3.58;;
35074;SDS011;21260;34.984;32.490;2022-08-03T05:45:26;6.65;;;3.60;;
35074;SDS011;21260;34.984;32.490;2022-08-03T05:47:52;6.47;;;3.60;;
35074;SDS011;21260;34.984;32.490;2022-08-03T05:50:19;7.07;;;3.90;;
35074;SDS011;21260;34.984;32.490;2022-08-03T05:52:46;14.52;;;3.47;;
35074;SDS011;21260;34.984;32.490;2022-08-03T05:55:12;5.60;;;3.55;;
35074;SDS011;21260;34.984;32.490;2022-08-03T05:57:40;4.72;;;3.45;;
35074;SDS011;21260;34.984;32.490;2022-08-03T06:00:08;6.57;;;3.60;;
35074;SDS011;21260;34.984;32.490;2022-08-03T06:02:36;7.60;;;3.65;;
35074;SDS011;21260;34.984;32.490;2022-08-03T06:05:03;7.25;;;3.40;;
35074;SDS011;21260;34.984;32.490;2022-08-03T06:07:30;6.55;;;3.70;;
35074;SDS011;21260;34.984;32.490;2022-08-03T06:09:57;6.30;;;4.00;;
35074;SDS011;21260;34.984;32.490;2022-08-03T06:12:24;6.95;;;3.10;;
35074;SDS011;21260;34.984;32.490;2022-08-03T06:14:51;6.32;;;3.60;;
35074;SDS011;21260;34.984;32.490;2022-08-03T06:17:17;4.30;;;3.20;;
35074;SDS011;21260;34.984;32.490;2022-08-03T06:19:43;7.00;;;3.78;;
35074;SDS011;21260;34.984;32.490;2022-08-03T06:22:10;4.28;;;3.30;;
35074;SDS011;21260;34.984;32.490;2022-08-03T06:24:36;5.95;;;3.58;;
35074;SDS011;21260;34.984;32.490;2022-08-03T06:27:03;9.23;;;3.78;;
35074;SDS011;21260;34.984;32.490;2022-08-03T06:29:29;5.40;;;4.13;;
35074;SDS011;21260;34.984;32.490;2022-08-03T06:31:55;5.43;;;3.53;;
35074;SDS011;21260;34.984;32.490;2022-08-03T06:34:22;7.00;;;4.07;;
35074;SDS011;21260;34.984;32.490;2022-08-03T06:36:48;6.15;;;4.00;;
35074;SDS011;21260;34.984;32.490;2022-08-03T06:39:15;6.82;;;4.15;;
35074;SDS011;21260;34.984;32.490;2022-08-03T06:41:42;5.75;;;3.92;;
35074;SDS011;21260;34.984;32.490;2022-08-03T06:44:09;7.60;;;3.50;;
35074;SDS011;21260;34.984;32.490;2022-08-03T06:46:35;6.07;;;3.70;;
35074;SDS011;21260;34.984;32.490;2022-08-03T06:49:02;7.75;;;4.15;;
35074;SDS011;21260;34.984;32.490;2022-08-03T06:51:28;6.40;;;4.15;;
35074;SDS011;21260;34.984;32.490;2022-08-03T06:53:55;5.53;;;3.90;;
35074;SDS011;21260;34.984;32.490;2022-08-03T06:56:21;9.48;;;4.47;;
35074;SDS011;21260;34.984;32.490;2022-08-03T06:58:47;7.15;;;4.60;;
35074;SDS011;21260;34.984;32.490;2022-08-03T07:01:14;10.38;;;4.60;;
35074;SDS011;21260;34.984;32.490;2022-08-03T07:03:40;11.13;;;5.25;;
35074;SDS011;21260;34.984;32.490;2022-08-03T07:06:07;8.13;;;5.00;;
35074;SDS011;21260;34.984;32.490;2022-08-03T07:08:40;10.13;;;5.93;;
35074;SDS011;21260;34.984;32.490;2022-08-03T07:11:07;12.80;;;6.38;;
35074;SDS011;21260;34.984;32.490;2022-08-03T07:13:33;12.50;;;7.45;;
35074;SDS011;21260;34.984;32.490;2022-08-03T07:16:05;10.70;;;6.63;;
35074;SDS011;21260;34.984;32.490;2022-08-03T07:18:31;13.40;;;6.78;;
35074;SDS011;21260;34.984;32.490;2022-08-03T07:20:58;9.82;;;6.30;;
35074;SDS011;21260;34.984;32.490;2022-08-03T07:23:24;14.55;;;7.07;;
35074;SDS011;21260;34.984;32.490;2022-08-03T07:25:51;10.30;;;5.97;;
35074;SDS011;21260;34.984;32.490;2022-08-03T07:28:18;15.48;;;6.38;;
35074;SDS011;21260;34.984;32.490;2022-08-03T07:30:45;10.75;;;6.43;;
35074;SDS011;21260;34.984;32.490;2022-08-03T07:33:12;12.43;;;7.07;;
35074;SDS011;21260;34.984;32.490;2022-08-03T07:35:40;10.05;;;6.80;;
35074;SDS011;21260;34.984;32.490;2022-08-03T07:38:07;10.65;;;6.53;;
35074;SDS011;21260;34.984;32.490;2022-08-03T07:40:33;8.98;;;6.65;;
35074;SDS011;21260;34.984;32.490;2022-08-03T07:43:00;9.82;;;6.35;;
35074;SDS011;21260;34.984;32.490;2022-08-03T07:45:28;15.02;;;6.70;;
35074;SDS011;21260;34.984;32.490;2022-08-03T07:47:56;9.23;;;6.63;;
35074;SDS011;21260;34.984;32.490;2022-08-03T07:50:22;10.27;;;6.45;;
35074;SDS011;21260;34.984;32.490;2022-08-03T07:52:50;9.15;;;6.63;;
35074;SDS011;21260;34.984;32.490;2022-08-03T07:55:23;11.35;;;6.65;;
35074;SDS011;21260;34.984;32.490;2022-08-03T07:58:04;8.70;;;6.65;;
35074;SDS011;21260;34.984;32.490;2022-08-03T08:00:34;12.32;;;6.68;;
35074;SDS011;21260;34.984;32.490;2022-08-03T08:03:01;14.38;;;6.88;;
35074;SDS011;21260;34.984;32.490;2022-08-03T08:05:29;17.45;;;7.57;;
35074;SDS011;21260;34.984;32.490;2022-08-03T08:07:56;16.80;;;6.93;;
35074;SDS011;21260;34.984;32.490;2022-08-03T08:10:24;10.48;;;6.30;;
35074;SDS011;21260;34.984;32.490;2022-08-03T08:12:51;15.05;;;6.35;;
35074;SDS011;21260;34.984;32.490;2022-08-03T08:15:19;12.80;;;6.88;;
35074;SDS011;21260;34.984;32.490;2022-08-03T08:17:49;12.85;;;6.50;;
35074;SDS011;21260;34.984;32.490;2022-08-03T08:20:20;9.38;;;6.60;;
35074;SDS011;21260;34.984;32.490;2022-08-03T08:22:50;12.80;;;6.38;;
35074;SDS011;21260;34.984;32.490;2022-08-03T08:25:22;11.38;;;6.50;;
35074;SDS011;21260;34.984;32.490;2022-08-03T08:27:48;8.80;;;6.57;;
35074;SDS011;21260;34.984;32.490;2022-08-03T08:30:17;8.43;;;6.10;;
35074;SDS011;21260;34.984;32.490;2022-08-03T08:32:49;9.50;;;6.20;;
35074;SDS011;21260;34.984;32.490;2022-08-03T08:35:16;9.48;;;6.00;;
35074;SDS011;21260;34.984;32.490;2022-08-03T08:37:43;10.20;;;6.32;;
35074;SDS011;21260;34.984;32.490;2022-08-03T08:40:10;11.45;;;6.20;;
35074;SDS011;21260;34.984;32.490;2022-08-03T08:42:38;8.25;;;7.03;;
35074;SDS011;21260;34.984;32.490;2022-08-03T08:45:08;10.57;;;6.72;;
35074;SDS011;21260;34.984;32.490;2022-08-03T08:47:37;14.68;;;6.70;;
35074;SDS011;21260;34.984;32.490;2022-08-03T08:50:08;10.35;;;6.43;;
35074;SDS011;21260;34.984;32.490;2022-08-03T08:52:35;15.02;;;7.13;;
35074;SDS011;21260;34.984;32.490;2022-08-03T08:55:06;10.68;;;6.90;;
35074;SDS011;21260;34.984;32.490;2022-08-03T08:57:44;15.38;;;6.85;;
35074;SDS011;21260;34.984;32.490;2022-08-03T09:00:16;11.13;;;6.50;;
35074;SDS011;21260;34.984;32.490;2022-08-03T09:02:45;13.55;;;6.57;;
35074;SDS011;21260;34.984;32.490;2022-08-03T09:05:16;15.38;;;7.18;;
35074;SDS011;21260;34.984;32.490;2022-08-03T09:07:44;14.90;;;6.70;;
35074;SDS011;21260;34.984;32.490;2022-08-03T09:10:13;15.63;;;7.38;;
35074;SDS011;21260;34.984;32.490;2022-08-03T09:12:47;12.45;;;6.55;;
35074;SDS011;21260;34.984;32.490;2022-08-03T09:15:29;12.30;;;6.82;;
35074;SDS011;21260;34.984;32.490;2022-08-03T09:17:58;13.45;;;6.90;;
35074;SDS011;21260;34.984;32.490;2022-08-03T09:20:28;10.07;;;7.10;;
35074;SDS011;21260;34.984;32.490;2022-08-03T09:23:03;11.27;;;7.13;;
35074;SDS011;21260;34.984;32.490;2022-08-03T09:28:10;14.20;;;7.15;;
35074;SDS011;21260;34.984;32.490;2022-08-03T09:30:42;10.60;;;6.93;;
35074;SDS011;21260;34.984;32.490;2022-08-03T09:33:23;13.40;;;7.32;;
35074;SDS011;21260;34.984;32.490;2022-08-03T09:35:50;12.95;;;7.57;;
35074;SDS011;21260;34.984;32.490;2022-08-03T09:38:22;11.35;;;7.22;;
35074;SDS011;21260;34.984;32.490;2022-08-03T09:40:53;11.77;;;7.68;;
35074;SDS011;21260;34.984;32.490;2022-08-03T09:43:21;13.98;;;7.95;;
35074;SDS011;21260;34.984;32.490;2022-08-03T09:45:49;12.10;;;7.82;;
35074;SDS011;21260;34.984;32.490;2022-08-03T09:48:28;15.32;;;8.32;;
35074;SDS011;21260;34.984;32.490;2022-08-03T09:50:58;14.85;;;8.50;;
35074;SDS011;21260;34.984;32.490;2022-08-03T09:53:27;16.52;;;8.57;;
35074;SDS011;21260;34.984;32.490;2022-08-03T09:55:54;12.95;;;8.27;;
35074;SDS011;21260;34.984;32.490;2022-08-03T09:58:24;12.80;;;8.70;;
35074;SDS011;21260;34.984;32.490;2022-08-03T10:01:00;21.10;;;8.52;;
35074;SDS011;21260;34.984;32.490;2022-08-03T10:03:30;19.80;;;9.07;;
35074;SDS011;21260;34.984;32.490;2022-08-03T10:06:14;12.88;;;8.77;;
35074;SDS011;21260;34.984;32.490;2022-08-03T10:08:46;14.55;;;9.13;;
35074;SDS011;21260;34.984;32.490;2022-08-03T10:11:40;17.75;;;8.63;;
35074;SDS011;21260;34.984;32.490;2022-08-03T10:14:11;24.00;;;9.60;;
35074;SDS011;21260;34.984;32.490;2022-08-03T10:16:44;17.15;;;9.38;;
35074;SDS011;21260;34.984;32.490;2022-08-03T10:19:12;11.48;;;9.32;;
35074;SDS011;21260;34.984;32.490;2022-08-03T10:21:40;14.15;;;9.00;;
35074;SDS011;21260;34.984;32.490;2022-08-03T10:24:25;23.00;;;10.00;;
35074;SDS011;21260;34.984;32.490;2022-08-03T10:27:00;14.88;;;9.10;;
35074;SDS011;21260;34.984;32.490;2022-08-03T10:29:37;16.13;;;9.25;;
35074;SDS011;21260;34.984;32.490;2022-08-03T10:32:21;17.08;;;9.55;;
35074;SDS011;21260;34.984;32.490;2022-08-03T10:35:12;15.65;;;10.20;;
35074;SDS011;21260;34.984;32.490;2022-08-03T10:37:44;20.35;;;9.93;;
35074;SDS011;21260;34.984;32.490;2022-08-03T10:40:23;16.33;;;9.15;;
35074;SDS011;21260;34.984;32.490;2022-08-03T10:42:58;13.65;;;9.75;;
35074;SDS011;21260;34.984;32.490;2022-08-03T10:45:51;15.18;;;10.02;;
35074;SDS011;21260;34.984;32.490;2022-08-03T10:48:18;17.65;;;10.32;;
35074;SDS011;21260;34.984;32.490;2022-08-03T10:50:45;14.68;;;10.40;;
35074;SDS011;21260;34.984;32.490;2022-08-03T10:53:18;18.92;;;9.95;;
35074;SDS011;21260;34.984;32.490;2022-08-03T10:56:06;18.02;;;10.32;;
35074;SDS011;21260;34.984;32.490;2022-08-03T10:59:55;15.23;;;10.40;;
35074;SDS011;21260;34.984;32.490;2022-08-03T11:02:20;16.38;;;10.40;;
35074;SDS011;21260;34.984;32.490;2022-08-03T11:05:24;14.23;;;10.43;;
35074;SDS011;21260;34.984;32.490;2022-08-03T11:08:18;17.42;;;11.02;;
35074;SDS011;21260;34.984;32.490;2022-08-03T11:10:52;17.73;;;10.88;;
35074;SDS011;21260;34.984;32.490;2022-08-03T11:13:26;15.93;;;10.43;;
35074;SDS011;21260;34.984;32.490;2022-08-03T11:15:58;15.63;;;10.70;;
35074;SDS011;21260;34.984;32.490;2022-08-03T11:18:58;19.75;;;10.32;;
35074;SDS011;21260;34.984;32.490;2022-08-03T11:29:54;14.52;;;10.55;;
35074;SDS011;21260;34.984;32.490;2022-08-03T11:35:11;15.23;;;11.00;;
35074;SDS011;21260;34.984;32.490;2022-08-03T11:40:33;13.32;;;10.55;;
35074;SDS011;21260;34.984;32.490;2022-08-03T11:45:57;14.80;;;11.95;;
35074;SDS011;21260;34.984;32.490;2022-08-03T11:48:33;14.07;;;10.88;;
35074;SDS011;21260;34.984;32.490;2022-08-03T11:51:23;15.77;;;11.10;;
35074;SDS011;21260;34.984;32.490;2022-08-03T11:53:52;16.05;;;11.05;;
35074;SDS011;21260;34.984;32.490;2022-08-03T11:56:27;14.05;;;11.13;;
35074;SDS011;21260;34.984;32.490;2022-08-03T11:59:07;14.85;;;11.52;;
35074;SDS011;21260;34.984;32.490;2022-08-03T12:01:34;13.40;;;10.68;;
35074;SDS011;21260;34.984;32.490;2022-08-03T12:04:02;14.48;;;11.77;;
35074;SDS011;21260;34.984;32.490;2022-08-03T12:06:30;14.13;;;11.23;;
35074;SDS011;21260;34.984;32.490;2022-08-03T12:09:19;16.27;;;11.48;;
35074;SDS011;21260;34.984;32.490;2022-08-03T12:11:49;17.00;;;11.52;;
35074;SDS011;21260;34.984;32.490;2022-08-03T12:14:17;15.95;;;12.25;;
35074;SDS011;21260;34.984;32.490;2022-08-03T12:16:47;14.80;;;11.38;;
35074;SDS011;21260;34.984;32.490;2022-08-03T12:19:15;16.33;;;12.85;;
35074;SDS011;21260;34.984;32.490;2022-08-03T12:21:48;18.50;;;11.20;;
35074;SDS011;21260;34.984;32.490;2022-08-03T12:24:15;13.27;;;10.85;;
35074;SDS011;21260;34.984;32.490;2022-08-03T12:26:43;18.42;;;11.30;;
35074;SDS011;21260;34.984;32.490;2022-08-03T12:29:18;13.32;;;9.80;;
35074;SDS011;21260;34.984;32.490;2022-08-03T12:31:45;15.57;;;10.60;;
35074;SDS011;21260;34.984;32.490;2022-08-03T12:34:13;16.83;;;10.65;;
35074;SDS011;21260;34.984;32.490;2022-08-03T12:36:50;12.00;;;10.13;;
35074;SDS011;21260;34.984;32.490;2022-08-03T12:39:24;12.35;;;10.52;;
35074;SDS011;21260;34.984;32.490;2022-08-03T12:41:55;14.77;;;9.88;;
35074;SDS011;21260;34.984;32.490;2022-08-03T12:44:28;20.48;;;10.40;;
35074;SDS011;21260;34.984;32.490;2022-08-03T12:47:00;15.48;;;9.55;;
35074;SDS011;21260;34.984;32.490;2022-08-03T12:49:28;13.05;;;9.90;;
35074;SDS011;21260;34.984;32.490;2022-08-03T12:52:19;17.70;;;9.85;;
35074;SDS011;21260;34.984;32.490;2022-08-03T12:54:53;17.08;;;9.35;;
35074;SDS011;21260;34.984;32.490;2022-08-03T12:57:21;16.10;;;9.77;;
35074;SDS011;21260;34.984;32.490;2022-08-03T12:59:48;16.10;;;9.52;;
35074;SDS011;21260;34.984;32.490;2022-08-03T13:02:20;15.32;;;9.27;;
35074;SDS011;21260;34.984;32.490;2022-08-03T13:04:49;12.52;;;9.32;;
35074;SDS011;21260;34.984;32.490;2022-08-03T13:07:19;14.55;;;8.27;;
35074;SDS011;21260;34.984;32.490;2022-08-03T13:09:47;15.05;;;9.27;;
35074;SDS011;21260;34.984;32.490;2022-08-03T13:12:20;13.57;;;9.20;;
35074;SDS011;21260;34.984;32.490;2022-08-03T13:14:57;10.75;;;9.10;;
35074;SDS011;21260;34.984;32.490;2022-08-03T13:17:25;15.75;;;9.48;;
35074;SDS011;21260;34.984;32.490;2022-08-03T13:19:52;13.13;;;8.88;;
35074;SDS011;21260;34.984;32.490;2022-08-03T13:22:22;14.50;;;8.77;;
35074;SDS011;21260;34.984;32.490;2022-08-03T13:24:53;11.02;;;8.57;;
35074;SDS011;21260;34.984;32.490;2022-08-03T13:27:22;12.20;;;9.57;;
35074;SDS011;21260;34.984;32.490;2022-08-03T13:29:49;10.60;;;9.10;;
35074;SDS011;21260;34.984;32.490;2022-08-03T13:32:17;12.57;;;8.60;;
35074;SDS011;21260;34.984;32.490;2022-08-03T13:34:45;12.82;;;8.98;;
35074;SDS011;21260;34.984;32.490;2022-08-03T13:37:11;12.18;;;8.82;;
35074;SDS011;21260;34.984;32.490;2022-08-03T13:39:38;15.73;;;8.57;;
35074;SDS011;21260;34.984;32.490;2022-08-03T13:42:05;11.52;;;8.40;;
35074;SDS011;21260;34.984;32.490;2022-08-03T13:44:32;15.43;;;8.35;;
35074;SDS011;21260;34.984;32.490;2022-08-03T13:47:03;18.65;;;8.80;;
35074;SDS011;21260;34.984;32.490;2022-08-03T13:49:29;17.00;;;8.52;;
35074;SDS011;21260;34.984;32.490;2022-08-03T13:51:56;16.30;;;8.02;;
35074;SDS011;21260;34.984;32.490;2022-08-03T13:54:22;10.35;;;8.13;;
35074;SDS011;21260;34.984;32.490;2022-08-03T13:56:51;13.43;;;8.50;;
35074;SDS011;21260;34.984;32.490;2022-08-03T13:59:18;13.57;;;8.00;;
35074;SDS011;21260;34.984;32.490;2022-08-03T14:01:49;14.25;;;8.00;;
35074;SDS011;21260;34.984;32.490;2022-08-03T14:04:18;12.13;;;7.88;;
35074;SDS011;21260;34.984;32.490;2022-08-03T14:06:46;12.63;;;8.35;;
35074;SDS011;21260;34.984;32.490;2022-08-03T14:09:13;14.10;;;8.48;;
35074;SDS011;21260;34.984;32.490;2022-08-03T14:11:41;14.30;;;7.63;;
35074;SDS011;21260;34.984;32.490;2022-08-03T14:14:12;13.23;;;7.78;;
35074;SDS011;21260;34.984;32.490;2022-08-03T14:16:40;16.23;;;8.02;;
35074;SDS011;21260;34.984;32.490;2022-08-03T14:19:07;10.07;;;7.40;;
35074;SDS011;21260;34.984;32.490;2022-08-03T14:21:33;13.48;;;7.57;;
35074;SDS011;21260;34.984;32.490;2022-08-03T14:24:00;12.80;;;8.07;;
35074;SDS011;21260;34.984;32.490;2022-08-03T14:26:26;14.43;;;7.57;;
35074;SDS011;21260;34.984;32.490;2022-08-03T14:28:54;9.65;;;7.45;;
35074;SDS011;21260;34.984;32.490;2022-08-03T14:31:20;16.88;;;7.50;;
35074;SDS011;21260;34.984;32.490;2022-08-03T14:33:48;10.10;;;7.38;;
35074;SDS011;21260;34.984;32.490;2022-08-03T14:36:15;12.18;;;7.50;;
35074;SDS011;21260;34.984;32.490;2022-08-03T14:38:41;9.43;;;7.30;;
35074;SDS011;21260;34.984;32.490;2022-08-03T14:41:08;12.15;;;7.40;;
35074;SDS011;21260;34.984;32.490;2022-08-03T14:43:35;12.10;;;7.63;;
35074;SDS011;21260;34.984;32.490;2022-08-03T14:46:01;10.23;;;7.25;;
35074;SDS011;21260;34.984;32.490;2022-08-03T14:48:28;13.63;;;7.93;;
35074;SDS011;21260;34.984;32.490;2022-08-03T14:50:54;14.75;;;7.45;;
35074;SDS011;21260;34.984;32.490;2022-08-03T14:53:20;14.85;;;7.72;;
35074;SDS011;21260;34.984;32.490;2022-08-03T14:55:47;11.23;;;7.40;;
35074;SDS011;21260;34.984;32.490;2022-08-03T14:58:15;10.38;;;6.50;;
35074;SDS011;21260;34.984;32.490;2022-08-03T15:00:41;13.75;;;7.60;;
35074;SDS011;21260;34.984;32.490;2022-08-03T15:03:07;8.73;;;6.63;;
35074;SDS011;21260;34.984;32.490;2022-08-03T15:05:34;9.70;;;6.65;;
35074;SDS011;21260;34.984;32.490;2022-08-03T15:08:00;10.32;;;7.07;;
35074;SDS011;21260;34.984;32.490;2022-08-03T15:10:26;10.23;;;6.45;;
35074;SDS011;21260;34.984;32.490;2022-08-03T15:12:52;12.57;;;6.95;;
35074;SDS011;21260;34.984;32.490;2022-08-03T15:15:19;10.45;;;6.93;;
35074;SDS011;21260;34.984;32.490;2022-08-03T15:17:46;11.60;;;7.03;;
35074;SDS011;21260;34.984;32.490;2022-08-03T15:20:12;12.68;;;6.95;;
35074;SDS011;21260;34.984;32.490;2022-08-03T15:22:39;9.90;;;6.88;;